sensor_id;sensor_type;location;lat;lon;timestamp;P1;durP1;ratioP1;P2;durP2;ratioP2
15614;SDS011;7907;51.368;6.730;2022-09-27T00:00:37;1.10;;;0.73;;
15614;SDS011;7907;51.368;6.730;2022-09-27T00:03:07;3.33;;;1.33;;
15614;SDS011;7907;51.368;6.730;2022-09-27T00:05:34;6.13;;;1.75;;
15614;SDS011;7907;51.368;6.730;2022-09-27T00:08:03;2.05;;;0.60;;
15614;SDS011;7907;51.368;6.730;2022-09-27T00:10:31;1.97;;;1.00;;
15614;SDS011;7907;51.368;6.730;2022-09-27T00:12:58;2.63;;;1.10;;
15614;SDS011;7907;51.368;6.730;2022-09-27T00:15:25;2.00;;;1.40;;
15614;SDS011;7907;51.368;6.730;2022-09-27T00:17:52;4.00;;;1.50;;
15614;SDS011;7907;51.368;6.730;2022-09-27T00:20:20;3.03;;;2.28;;
15614;SDS011;7907;51.368;6.730;2022-09-27T00:22:47;3.85;;;2.28;;
15614;SDS011;7907;51.368;6.730;2022-09-27T00:25:16;1.53;;;1.13;;
15614;SDS011;7907;51.368;6.730;2022-09-27T00:27:43;2.30;;;1.38;;
15614;SDS011;7907;51.368;6.730;2022-09-27T00:30:11;6.10;;;3.03;;
15614;SDS011;7907;51.368;6.730;2022-09-27T00:32:39;7.30;;;2.92;;
15614;SDS011;7907;51.368;6.730;2022-09-27T00:35:07;4.05;;;2.70;;
15614;SDS011;7907;51.368;6.730;2022-09-27T00:37:34;3.95;;;2.53;;
15614;SDS011;7907;51.368;6.730;2022-09-27T00:40:01;6.45;;;3.47;;
15614;SDS011;7907;51.368;6.730;2022-09-27T00:42:30;7.13;;;4.03;;
15614;SDS011;7907;51.368;6.730;2022-09-27T00:45:11;6.60;;;3.65;;
15614;SDS011;7907;51.368;6.730;2022-09-27T00:47:42;9.25;;;4.68;;
15614;SDS011;7907;51.368;6.730;2022-09-27T00:50:19;10.05;;;5.60;;
15614;SDS011;7907;51.368;6.730;2022-09-27T00:52:54;13.52;;;4.75;;
15614;SDS011;7907;51.368;6.730;2022-09-27T00:55:29;7.38;;;2.60;;
15614;SDS011;7907;51.368;6.730;2022-09-27T00:58:02;3.77;;;2.77;;
15614;SDS011;7907;51.368;6.730;2022-09-27T01:00:30;3.25;;;2.60;;
15614;SDS011;7907;51.368;6.730;2022-09-27T01:02:59;3.65;;;1.88;;
15614;SDS011;7907;51.368;6.730;2022-09-27T01:05:31;4.47;;;3.03;;
15614;SDS011;7907;51.368;6.730;2022-09-27T01:07:59;3.22;;;2.30;;
15614;SDS011;7907;51.368;6.730;2022-09-27T01:10:29;4.25;;;2.65;;
15614;SDS011;7907;51.368;6.730;2022-09-27T01:13:05;7.40;;;3.17;;
15614;SDS011;7907;51.368;6.730;2022-09-27T01:15:39;6.38;;;3.35;;
15614;SDS011;7907;51.368;6.730;2022-09-27T01:18:17;8.73;;;3.78;;
15614;SDS011;7907;51.368;6.730;2022-09-27T01:20:56;2.42;;;1.50;;
15614;SDS011;7907;51.368;6.730;2022-09-27T01:23:53;3.47;;;2.15;;
15614;SDS011;7907;51.368;6.730;2022-09-27T01:29:41;5.93;;;3.20;;
15614;SDS011;7907;51.368;6.730;2022-09-27T01:32:17;6.30;;;3.13;;
15614;SDS011;7907;51.368;6.730;2022-09-27T01:34:52;7.20;;;3.95;;
15614;SDS011;7907;51.368;6.730;2022-09-27T01:37:27;6.20;;;2.50;;
15614;SDS011;7907;51.368;6.730;2022-09-27T01:40:04;5.65;;;3.15;;
15614;SDS011;7907;51.368;6.730;2022-09-27T01:42:40;4.05;;;2.78;;
15614;SDS011;7907;51.368;6.730;2022-09-27T01:45:16;5.10;;;2.43;;
15614;SDS011;7907;51.368;6.730;2022-09-27T01:47:48;7.13;;;3.37;;
15614;SDS011;7907;51.368;6.730;2022-09-27T01:50:19;10.43;;;4.07;;
15614;SDS011;7907;51.368;6.730;2022-09-27T01:52:52;5.60;;;3.08;;
15614;SDS011;7907;51.368;6.730;2022-09-27T01:55:23;11.70;;;5.13;;
15614;SDS011;7907;51.368;6.730;2022-09-27T01:57:55;3.03;;;2.10;;
15614;SDS011;7907;51.368;6.730;2022-09-27T02:00:26;5.00;;;2.47;;
15614;SDS011;7907;51.368;6.730;2022-09-27T02:02:56;5.80;;;2.92;;
15614;SDS011;7907;51.368;6.730;2022-09-27T02:05:28;8.77;;;2.40;;
15614;SDS011;7907;51.368;6.730;2022-09-27T02:07:58;4.60;;;2.90;;
15614;SDS011;7907;51.368;6.730;2022-09-27T02:10:29;5.30;;;3.43;;
15614;SDS011;7907;51.368;6.730;2022-09-27T02:13:01;8.52;;;2.85;;
15614;SDS011;7907;51.368;6.730;2022-09-27T02:15:40;6.13;;;3.70;;
15614;SDS011;7907;51.368;6.730;2022-09-27T02:18:16;6.78;;;2.35;;
15614;SDS011;7907;51.368;6.730;2022-09-27T02:20:50;5.85;;;3.40;;
15614;SDS011;7907;51.368;6.730;2022-09-27T02:23:22;6.93;;;3.72;;
15614;SDS011;7907;51.368;6.730;2022-09-27T02:25:56;6.72;;;3.65;;
15614;SDS011;7907;51.368;6.730;2022-09-27T02:28:26;2.83;;;1.70;;
15614;SDS011;7907;51.368;6.730;2022-09-27T02:30:56;3.83;;;1.80;;
15614;SDS011;7907;51.368;6.730;2022-09-27T02:33:25;4.63;;;3.20;;
15614;SDS011;7907;51.368;6.730;2022-09-27T02:35:56;3.85;;;2.50;;
15614;SDS011;7907;51.368;6.730;2022-09-27T02:38:24;4.00;;;2.55;;
15614;SDS011;7907;51.368;6.730;2022-09-27T02:40:51;4.72;;;2.33;;
15614;SDS011;7907;51.368;6.730;2022-09-27T02:43:21;6.38;;;3.60;;
15614;SDS011;7907;51.368;6.730;2022-09-27T02:45:57;5.88;;;2.50;;
15614;SDS011;7907;51.368;6.730;2022-09-27T02:48:36;13.65;;;3.30;;
15614;SDS011;7907;51.368;6.730;2022-09-27T02:51:21;8.00;;;3.65;;
15614;SDS011;7907;51.368;6.730;2022-09-27T02:54:05;7.72;;;3.00;;
15614;SDS011;7907;51.368;6.730;2022-09-27T02:56:44;8.10;;;2.22;;
15614;SDS011;7907;51.368;6.730;2022-09-27T02:59:22;4.88;;;1.58;;
15614;SDS011;7907;51.368;6.730;2022-09-27T03:01:57;3.00;;;2.45;;
15614;SDS011;7907;51.368;6.730;2022-09-27T03:04:36;4.70;;;2.50;;
15614;SDS011;7907;51.368;6.730;2022-09-27T03:07:07;3.30;;;2.30;;
15614;SDS011;7907;51.368;6.730;2022-09-27T03:09:42;6.43;;;3.08;;
15614;SDS011;7907;51.368;6.730;2022-09-27T03:12:12;7.13;;;3.97;;
15614;SDS011;7907;51.368;6.730;2022-09-27T03:14:40;8.23;;;2.90;;
15614;SDS011;7907;51.368;6.730;2022-09-27T03:17:07;5.93;;;2.53;;
15614;SDS011;7907;51.368;6.730;2022-09-27T03:19:36;9.57;;;4.78;;
15614;SDS011;7907;51.368;6.730;2022-09-27T03:22:03;8.82;;;5.22;;
15614;SDS011;7907;51.368;6.730;2022-09-27T03:24:30;7.47;;;3.65;;
15614;SDS011;7907;51.368;6.730;2022-09-27T03:26:57;5.07;;;2.75;;
15614;SDS011;7907;51.368;6.730;2022-09-27T03:29:24;7.30;;;2.40;;
15614;SDS011;7907;51.368;6.730;2022-09-27T03:31:52;3.70;;;1.77;;
15614;SDS011;7907;51.368;6.730;2022-09-27T03:34:19;2.55;;;2.08;;
15614;SDS011;7907;51.368;6.730;2022-09-27T03:36:48;5.15;;;2.97;;
15614;SDS011;7907;51.368;6.730;2022-09-27T03:39:15;6.38;;;3.10;;
15614;SDS011;7907;51.368;6.730;2022-09-27T03:41:43;15.57;;;2.42;;
15614;SDS011;7907;51.368;6.730;2022-09-27T03:44:10;3.57;;;1.80;;
15614;SDS011;7907;51.368;6.730;2022-09-27T03:46:37;3.55;;;1.58;;
15614;SDS011;7907;51.368;6.730;2022-09-27T03:49:05;7.50;;;2.40;;
15614;SDS011;7907;51.368;6.730;2022-09-27T03:51:32;8.98;;;3.55;;
15614;SDS011;7907;51.368;6.730;2022-09-27T03:54:01;4.70;;;1.60;;
15614;SDS011;7907;51.368;6.730;2022-09-27T03:56:28;2.17;;;0.98;;
15614;SDS011;7907;51.368;6.730;2022-09-27T03:58:55;3.97;;;1.48;;
15614;SDS011;7907;51.368;6.730;2022-09-27T04:01:23;0.70;;;0.65;;
15614;SDS011;7907;51.368;6.730;2022-09-27T04:03:51;0.47;;;0.45;;
15614;SDS011;7907;51.368;6.730;2022-09-27T04:06:18;1.05;;;0.40;;
15614;SDS011;7907;51.368;6.730;2022-09-27T04:08:45;1.50;;;0.40;;
15614;SDS011;7907;51.368;6.730;2022-09-27T04:11:14;1.05;;;0.68;;
15614;SDS011;7907;51.368;6.730;2022-09-27T04:13:41;1.85;;;1.17;;
15614;SDS011;7907;51.368;6.730;2022-09-27T04:16:09;0.70;;;0.60;;
15614;SDS011;7907;51.368;6.730;2022-09-27T04:18:36;1.17;;;0.90;;
15614;SDS011;7907;51.368;6.730;2022-09-27T04:21:03;5.35;;;2.10;;
15614;SDS011;7907;51.368;6.730;2022-09-27T04:23:31;1.00;;;0.80;;
15614;SDS011;7907;51.368;6.730;2022-09-27T04:25:58;1.25;;;1.10;;
15614;SDS011;7907;51.368;6.730;2022-09-27T04:28:27;0.95;;;0.55;;
15614;SDS011;7907;51.368;6.730;2022-09-27T04:30:55;4.47;;;1.05;;
15614;SDS011;7907;51.368;6.730;2022-09-27T04:33:23;1.63;;;1.00;;
15614;SDS011;7907;51.368;6.730;2022-09-27T04:35:50;6.57;;;3.20;;
15614;SDS011;7907;51.368;6.730;2022-09-27T04:38:35;2.63;;;0.97;;
15614;SDS011;7907;51.368;6.730;2022-09-27T04:41:02;3.85;;;1.23;;
15614;SDS011;7907;51.368;6.730;2022-09-27T04:43:32;8.10;;;1.73;;
15614;SDS011;7907;51.368;6.730;2022-09-27T04:46:00;2.08;;;1.33;;
15614;SDS011;7907;51.368;6.730;2022-09-27T04:48:27;0.43;;;0.43;;
15614;SDS011;7907;51.368;6.730;2022-09-27T04:50:55;1.00;;;0.65;;
15614;SDS011;7907;51.368;6.730;2022-09-27T04:53:23;0.68;;;0.55;;
15614;SDS011;7907;51.368;6.730;2022-09-27T04:55:51;1.08;;;0.43;;
15614;SDS011;7907;51.368;6.730;2022-09-27T04:58:20;2.50;;;0.90;;
15614;SDS011;7907;51.368;6.730;2022-09-27T05:00:50;2.17;;;0.38;;
15614;SDS011;7907;51.368;6.730;2022-09-27T05:03:19;3.00;;;0.57;;
15614;SDS011;7907;51.368;6.730;2022-09-27T05:05:47;1.85;;;0.55;;
15614;SDS011;7907;51.368;6.730;2022-09-27T05:08:14;1.00;;;0.70;;
15614;SDS011;7907;51.368;6.730;2022-09-27T05:10:41;4.17;;;0.97;;
15614;SDS011;7907;51.368;6.730;2022-09-27T05:13:08;3.42;;;1.10;;
15614;SDS011;7907;51.368;6.730;2022-09-27T05:15:35;3.10;;;1.77;;
15614;SDS011;7907;51.368;6.730;2022-09-27T05:18:05;3.28;;;0.73;;
15614;SDS011;7907;51.368;6.730;2022-09-27T05:20:34;3.88;;;2.03;;
15614;SDS011;7907;51.368;6.730;2022-09-27T05:23:02;1.05;;;0.80;;
15614;SDS011;7907;51.368;6.730;2022-09-27T05:25:30;2.05;;;1.13;;
15614;SDS011;7907;51.368;6.730;2022-09-27T05:27:59;1.30;;;0.95;;
15614;SDS011;7907;51.368;6.730;2022-09-27T05:30:27;0.98;;;0.50;;
15614;SDS011;7907;51.368;6.730;2022-09-27T05:32:54;1.65;;;0.88;;
15614;SDS011;7907;51.368;6.730;2022-09-27T05:35:23;4.13;;;1.30;;
15614;SDS011;7907;51.368;6.730;2022-09-27T05:37:51;2.17;;;1.15;;
15614;SDS011;7907;51.368;6.730;2022-09-27T05:40:20;2.20;;;1.20;;
15614;SDS011;7907;51.368;6.730;2022-09-27T05:42:48;9.60;;;3.08;;
15614;SDS011;7907;51.368;6.730;2022-09-27T05:45:16;7.47;;;3.73;;
15614;SDS011;7907;51.368;6.730;2022-09-27T05:47:51;1.13;;;0.82;;
15614;SDS011;7907;51.368;6.730;2022-09-27T05:50:18;3.70;;;0.65;;
15614;SDS011;7907;51.368;6.730;2022-09-27T05:52:47;4.32;;;1.80;;
15614;SDS011;7907;51.368;6.730;2022-09-27T05:55:14;0.50;;;0.40;;
15614;SDS011;7907;51.368;6.730;2022-09-27T05:57:42;2.63;;;0.30;;
15614;SDS011;7907;51.368;6.730;2022-09-27T06:00:19;1.13;;;0.53;;
15614;SDS011;7907;51.368;6.730;2022-09-27T06:02:51;1.20;;;1.00;;
15614;SDS011;7907;51.368;6.730;2022-09-27T06:05:20;0.50;;;0.23;;
15614;SDS011;7907;51.368;6.730;2022-09-27T06:07:50;0.70;;;0.15;;
15614;SDS011;7907;51.368;6.730;2022-09-27T06:10:18;0.22;;;0.20;;
15614;SDS011;7907;51.368;6.730;2022-09-27T06:12:50;0.30;;;0.30;;
15614;SDS011;7907;51.368;6.730;2022-09-27T06:15:17;0.85;;;0.28;;
15614;SDS011;7907;51.368;6.730;2022-09-27T06:17:45;0.40;;;0.40;;
15614;SDS011;7907;51.368;6.730;2022-09-27T06:20:12;2.22;;;0.30;;
15614;SDS011;7907;51.368;6.730;2022-09-27T06:22:40;0.63;;;0.40;;
15614;SDS011;7907;51.368;6.730;2022-09-27T06:25:09;0.50;;;0.40;;
15614;SDS011;7907;51.368;6.730;2022-09-27T06:27:36;0.30;;;0.30;;
15614;SDS011;7907;51.368;6.730;2022-09-27T06:30:04;0.40;;;0.40;;
15614;SDS011;7907;51.368;6.730;2022-09-27T06:32:32;1.60;;;0.28;;
15614;SDS011;7907;51.368;6.730;2022-09-27T06:35:00;3.47;;;0.68;;
15614;SDS011;7907;51.368;6.730;2022-09-27T06:37:29;0.20;;;0.10;;
15614;SDS011;7907;51.368;6.730;2022-09-27T06:39:56;0.85;;;0.40;;
15614;SDS011;7907;51.368;6.730;2022-09-27T06:42:25;0.15;;;0.15;;
15614;SDS011;7907;51.368;6.730;2022-09-27T06:44:53;0.20;;;0.20;;
15614;SDS011;7907;51.368;6.730;2022-09-27T06:47:20;0.60;;;0.50;;
15614;SDS011;7907;51.368;6.730;2022-09-27T06:49:48;1.73;;;0.75;;
15614;SDS011;7907;51.368;6.730;2022-09-27T06:52:15;0.95;;;0.30;;
15614;SDS011;7907;51.368;6.730;2022-09-27T06:54:42;2.50;;;0.70;;
15614;SDS011;7907;51.368;6.730;2022-09-27T06:57:09;1.05;;;0.47;;
15614;SDS011;7907;51.368;6.730;2022-09-27T06:59:59;0.90;;;0.40;;
15614;SDS011;7907;51.368;6.730;2022-09-27T07:02:44;0.10;;;0.10;;
15614;SDS011;7907;51.368;6.730;2022-09-27T07:05:12;0.10;;;0.10;;
15614;SDS011;7907;51.368;6.730;2022-09-27T07:07:39;0.00;;;0.00;;
15614;SDS011;7907;51.368;6.730;2022-09-27T07:10:08;0.20;;;0.20;;
15614;SDS011;7907;51.368;6.730;2022-09-27T07:12:36;0.30;;;0.20;;
15614;SDS011;7907;51.368;6.730;2022-09-27T07:15:05;2.60;;;0.30;;
15614;SDS011;7907;51.368;6.730;2022-09-27T07:17:33;0.17;;;0.10;;
15614;SDS011;7907;51.368;6.730;2022-09-27T07:20:01;0.25;;;0.25;;
15614;SDS011;7907;51.368;6.730;2022-09-27T07:22:29;0.70;;;0.30;;
15614;SDS011;7907;51.368;6.730;2022-09-27T07:24:56;0.47;;;0.17;;
15614;SDS011;7907;51.368;6.730;2022-09-27T07:27:23;1.88;;;0.45;;
15614;SDS011;7907;51.368;6.730;2022-09-27T07:29:50;0.80;;;0.40;;
15614;SDS011;7907;51.368;6.730;2022-09-27T07:32:25;1.80;;;0.20;;
15614;SDS011;7907;51.368;6.730;2022-09-27T07:34:52;0.30;;;0.20;;
15614;SDS011;7907;51.368;6.730;2022-09-27T07:37:22;1.50;;;0.40;;
15614;SDS011;7907;51.368;6.730;2022-09-27T07:39:49;0.40;;;0.10;;
15614;SDS011;7907;51.368;6.730;2022-09-27T07:42:16;0.50;;;0.20;;
15614;SDS011;7907;51.368;6.730;2022-09-27T07:44:44;0.70;;;0.35;;
15614;SDS011;7907;51.368;6.730;2022-09-27T07:47:12;0.10;;;0.00;;
15614;SDS011;7907;51.368;6.730;2022-09-27T07:49:43;1.20;;;0.40;;
15614;SDS011;7907;51.368;6.730;2022-09-27T07:52:11;0.22;;;0.20;;
15614;SDS011;7907;51.368;6.730;2022-09-27T07:54:39;2.08;;;0.47;;
15614;SDS011;7907;51.368;6.730;2022-09-27T07:57:06;0.40;;;0.10;;
15614;SDS011;7907;51.368;6.730;2022-09-27T07:59:33;0.47;;;0.43;;
15614;SDS011;7907;51.368;6.730;2022-09-27T08:02:13;0.30;;;0.30;;
15614;SDS011;7907;51.368;6.730;2022-09-27T08:04:43;0.20;;;0.20;;
15614;SDS011;7907;51.368;6.730;2022-09-27T08:07:12;0.40;;;0.20;;
15614;SDS011;7907;51.368;6.730;2022-09-27T08:09:39;0.20;;;0.20;;
15614;SDS011;7907;51.368;6.730;2022-09-27T08:12:09;0.10;;;0.10;;
15614;SDS011;7907;51.368;6.730;2022-09-27T08:14:36;0.20;;;0.20;;
15614;SDS011;7907;51.368;6.730;2022-09-27T08:17:04;1.10;;;0.47;;
15614;SDS011;7907;51.368;6.730;2022-09-27T08:19:31;0.77;;;0.77;;
15614;SDS011;7907;51.368;6.730;2022-09-27T08:21:59;0.20;;;0.00;;
15614;SDS011;7907;51.368;6.730;2022-09-27T08:24:27;2.70;;;0.40;;
15614;SDS011;7907;51.368;6.730;2022-09-27T08:26:54;0.10;;;0.10;;
15614;SDS011;7907;51.368;6.730;2022-09-27T08:29:22;2.50;;;0.30;;
15614;SDS011;7907;51.368;6.730;2022-09-27T08:31:49;2.20;;;0.32;;
15614;SDS011;7907;51.368;6.730;2022-09-27T08:34:18;0.00;;;0.00;;
15614;SDS011;7907;51.368;6.730;2022-09-27T08:36:46;1.05;;;0.68;;
15614;SDS011;7907;51.368;6.730;2022-09-27T08:39:14;1.90;;;0.45;;
15614;SDS011;7907;51.368;6.730;2022-09-27T08:41:43;0.90;;;0.30;;
15614;SDS011;7907;51.368;6.730;2022-09-27T08:44:16;0.60;;;0.10;;
15614;SDS011;7907;51.368;6.730;2022-09-27T08:46:52;0.30;;;0.30;;
15614;SDS011;7907;51.368;6.730;2022-09-27T08:49:26;0.60;;;0.25;;
15614;SDS011;7907;51.368;6.730;2022-09-27T08:52:00;0.00;;;0.00;;
15614;SDS011;7907;51.368;6.730;2022-09-27T08:54:32;1.40;;;0.30;;
15614;SDS011;7907;51.368;6.730;2022-09-27T08:57:03;0.30;;;0.20;;
15614;SDS011;7907;51.368;6.730;2022-09-27T08:59:36;0.40;;;0.40;;
15614;SDS011;7907;51.368;6.730;2022-09-27T09:02:11;0.45;;;0.45;;
15614;SDS011;7907;51.368;6.730;2022-09-27T09:04:43;0.15;;;0.15;;
15614;SDS011;7907;51.368;6.730;2022-09-27T09:07:19;0.90;;;0.60;;
15614;SDS011;7907;51.368;6.730;2022-09-27T09:10:00;1.27;;;0.50;;
15614;SDS011;7907;51.368;6.730;2022-09-27T09:12:35;7.40;;;0.65;;
15614;SDS011;7907;51.368;6.730;2022-09-27T09:18:21;0.23;;;0.13;;
15614;SDS011;7907;51.368;6.730;2022-09-27T09:20:57;0.32;;;0.28;;
15614;SDS011;7907;51.368;6.730;2022-09-27T09:23:39;0.60;;;0.30;;
15614;SDS011;7907;51.368;6.730;2022-09-27T09:26:19;0.33;;;0.33;;
15614;SDS011;7907;51.368;6.730;2022-09-27T09:28:55;0.15;;;0.15;;
15614;SDS011;7907;51.368;6.730;2022-09-27T09:31:43;2.03;;;0.53;;
15614;SDS011;7907;51.368;6.730;2022-09-27T09:34:21;0.30;;;0.30;;
15614;SDS011;7907;51.368;6.730;2022-09-27T09:36:53;0.47;;;0.47;;
15614;SDS011;7907;51.368;6.730;2022-09-27T09:39:25;0.43;;;0.40;;
15614;SDS011;7907;51.368;6.730;2022-09-27T09:42:05;0.43;;;0.43;;
15614;SDS011;7907;51.368;6.730;2022-09-27T09:44:38;0.30;;;0.30;;
15614;SDS011;7907;51.368;6.730;2022-09-27T09:47:12;1.10;;;0.80;;
15614;SDS011;7907;51.368;6.730;2022-09-27T09:49:45;0.60;;;0.60;;
15614;SDS011;7907;51.368;6.730;2022-09-27T09:52:18;0.75;;;0.75;;
15614;SDS011;7907;51.368;6.730;2022-09-27T09:54:49;0.70;;;0.57;;
15614;SDS011;7907;51.368;6.730;2022-09-27T09:57:24;1.27;;;0.67;;
15614;SDS011;7907;51.368;6.730;2022-09-27T09:59:56;2.20;;;0.60;;
15614;SDS011;7907;51.368;6.730;2022-09-27T10:02:47;1.70;;;0.80;;
15614;SDS011;7907;51.368;6.730;2022-09-27T10:05:21;0.70;;;0.70;;
15614;SDS011;7907;51.368;6.730;2022-09-27T10:07:51;3.00;;;1.10;;
15614;SDS011;7907;51.368;6.730;2022-09-27T10:10:21;1.48;;;0.50;;
15614;SDS011;7907;51.368;6.730;2022-09-27T10:12:49;0.90;;;0.60;;
15614;SDS011;7907;51.368;6.730;2022-09-27T10:15:17;1.88;;;1.30;;
15614;SDS011;7907;51.368;6.730;2022-09-27T10:17:49;0.20;;;0.20;;
15614;SDS011;7907;51.368;6.730;2022-09-27T10:20:27;0.38;;;0.38;;
15614;SDS011;7907;51.368;6.730;2022-09-27T10:22:59;0.20;;;0.20;;
15614;SDS011;7907;51.368;6.730;2022-09-27T10:25:45;0.40;;;0.30;;
15614;SDS011;7907;51.368;6.730;2022-09-27T10:30:59;0.90;;;0.40;;
15614;SDS011;7907;51.368;6.730;2022-09-27T10:33:30;0.20;;;0.17;;
15614;SDS011;7907;51.368;6.730;2022-09-27T10:35:58;0.35;;;0.25;;
15614;SDS011;7907;51.368;6.730;2022-09-27T10:38:27;0.90;;;0.28;;
15614;SDS011;7907;51.368;6.730;2022-09-27T10:40:57;0.40;;;0.35;;
15614;SDS011;7907;51.368;6.730;2022-09-27T10:43:41;0.70;;;0.50;;
15614;SDS011;7907;51.368;6.730;2022-09-27T10:46:15;0.45;;;0.43;;
15614;SDS011;7907;51.368;6.730;2022-09-27T10:51:41;0.30;;;0.30;;
15614;SDS011;7907;51.368;6.730;2022-09-27T10:54:17;0.20;;;0.13;;
15614;SDS011;7907;51.368;6.730;2022-09-27T10:56:46;0.30;;;0.30;;
15614;SDS011;7907;51.368;6.730;2022-09-27T10:59:22;2.93;;;0.97;;
15614;SDS011;7907;51.368;6.730;2022-09-27T11:01:50;0.93;;;0.60;;
15614;SDS011;7907;51.368;6.730;2022-09-27T11:04:20;0.73;;;0.70;;
15614;SDS011;7907;51.368;6.730;2022-09-27T11:06:52;0.40;;;0.40;;
15614;SDS011;7907;51.368;6.730;2022-09-27T11:09:43;0.82;;;0.57;;
15614;SDS011;7907;51.368;6.730;2022-09-27T11:12:13;1.10;;;0.60;;
15614;SDS011;7907;51.368;6.730;2022-09-27T11:14:45;0.50;;;0.40;;
15614;SDS011;7907;51.368;6.730;2022-09-27T11:17:24;0.85;;;0.63;;
15614;SDS011;7907;51.368;6.730;2022-09-27T11:25:58;4.57;;;1.93;;
15614;SDS011;7907;51.368;6.730;2022-09-27T11:28:43;1.52;;;1.00;;
15614;SDS011;7907;51.368;6.730;2022-09-27T11:31:23;2.60;;;1.00;;
15614;SDS011;7907;51.368;6.730;2022-09-27T11:34:03;6.13;;;2.70;;
15614;SDS011;7907;51.368;6.730;2022-09-27T11:36:46;2.40;;;1.90;;
15614;SDS011;7907;51.368;6.730;2022-09-27T11:39:27;2.17;;;1.42;;
15614;SDS011;7907;51.368;6.730;2022-09-27T11:42:11;1.92;;;1.25;;
15614;SDS011;7907;51.368;6.730;2022-09-27T11:44:59;1.50;;;0.80;;
15614;SDS011;7907;51.368;6.730;2022-09-27T11:47:41;8.63;;;0.57;;
15614;SDS011;7907;51.368;6.730;2022-09-27T11:50:19;0.30;;;0.30;;
15614;SDS011;7907;51.368;6.730;2022-09-27T11:53:13;0.63;;;0.63;;
15614;SDS011;7907;51.368;6.730;2022-09-27T11:56:18;0.35;;;0.35;;
15614;SDS011;7907;51.368;6.730;2022-09-27T11:59:00;29.02;;;11.45;;
15614;SDS011;7907;51.368;6.730;2022-09-27T12:01:52;0.40;;;0.40;;
15614;SDS011;7907;51.368;6.730;2022-09-27T12:04:34;5.10;;;1.80;;
15614;SDS011;7907;51.368;6.730;2022-09-27T12:07:24;1.92;;;1.17;;
15614;SDS011;7907;51.368;6.730;2022-09-27T12:10:11;0.60;;;0.60;;
15614;SDS011;7907;51.368;6.730;2022-09-27T12:12:43;3.38;;;1.85;;
15614;SDS011;7907;51.368;6.730;2022-09-27T12:15:13;2.63;;;1.50;;
15614;SDS011;7907;51.368;6.730;2022-09-27T12:17:45;9.57;;;3.37;;
15614;SDS011;7907;51.368;6.730;2022-09-27T12:20:17;6.70;;;3.38;;
15614;SDS011;7907;51.368;6.730;2022-09-27T12:22:49;7.40;;;3.28;;
15614;SDS011;7907;51.368;6.730;2022-09-27T12:25:22;0.30;;;0.30;;
15614;SDS011;7907;51.368;6.730;2022-09-27T12:27:55;1.17;;;0.33;;
15614;SDS011;7907;51.368;6.730;2022-09-27T12:30:29;2.03;;;0.57;;
15614;SDS011;7907;51.368;6.730;2022-09-27T12:33:03;2.67;;;1.58;;
15614;SDS011;7907;51.368;6.730;2022-09-27T12:35:35;0.45;;;0.30;;
15614;SDS011;7907;51.368;6.730;2022-09-27T12:38:10;2.35;;;1.17;;
15614;SDS011;7907;51.368;6.730;2022-09-27T12:40:42;6.22;;;2.17;;
15614;SDS011;7907;51.368;6.730;2022-09-27T12:43:16;4.30;;;1.92;;
15614;SDS011;7907;51.368;6.730;2022-09-27T12:45:46;2.60;;;1.33;;
15614;SDS011;7907;51.368;6.730;2022-09-27T12:48:21;3.17;;;1.60;;
15614;SDS011;7907;51.368;6.730;2022-09-27T12:50:54;3.75;;;1.65;;
15614;SDS011;7907;51.368;6.730;2022-09-27T12:53:28;2.40;;;1.27;;
15614;SDS011;7907;51.368;6.730;2022-09-27T12:56:12;4.13;;;1.90;;
15614;SDS011;7907;51.368;6.730;2022-09-27T12:59:03;3.47;;;1.15;;
15614;SDS011;7907;51.368;6.730;2022-09-27T13:02:03;1.40;;;1.08;;
15614;SDS011;7907;51.368;6.730;2022-09-27T13:05:03;3.33;;;1.00;;
15614;SDS011;7907;51.368;6.730;2022-09-27T13:07:49;4.85;;;1.95;;
15614;SDS011;7907;51.368;6.730;2022-09-27T13:10:30;8.75;;;3.00;;
15614;SDS011;7907;51.368;6.730;2022-09-27T13:13:09;6.20;;;2.28;;
15614;SDS011;7907;51.368;6.730;2022-09-27T13:15:38;6.57;;;3.17;;
15614;SDS011;7907;51.368;6.730;2022-09-27T13:18:27;7.75;;;3.70;;
15614;SDS011;7907;51.368;6.730;2022-09-27T13:20:56;2.03;;;1.05;;
15614;SDS011;7907;51.368;6.730;2022-09-27T13:26:43;2.13;;;1.52;;
15614;SDS011;7907;51.368;6.730;2022-09-27T13:29:21;4.13;;;1.35;;
15614;SDS011;7907;51.368;6.730;2022-09-27T13:34:49;3.53;;;1.15;;
15614;SDS011;7907;51.368;6.730;2022-09-27T13:40:30;0.55;;;0.55;;
15614;SDS011;7907;51.368;6.730;2022-09-27T13:46:01;0.73;;;0.60;;
15614;SDS011;7907;51.368;6.730;2022-09-27T13:48:38;1.70;;;0.63;;
15614;SDS011;7907;51.368;6.730;2022-09-27T13:51:21;0.75;;;0.65;;
15614;SDS011;7907;51.368;6.730;2022-09-27T13:54:05;2.45;;;0.47;;
15614;SDS011;7907;51.368;6.730;2022-09-27T13:56:53;0.70;;;0.70;;
15614;SDS011;7907;51.368;6.730;2022-09-27T13:59:24;1.07;;;0.77;;
15614;SDS011;7907;51.368;6.730;2022-09-27T14:02:01;3.03;;;1.60;;
15614;SDS011;7907;51.368;6.730;2022-09-27T14:04:40;5.28;;;1.75;;
15614;SDS011;7907;51.368;6.730;2022-09-27T14:07:14;2.08;;;1.40;;
15614;SDS011;7907;51.368;6.730;2022-09-27T14:09:44;2.60;;;1.10;;
15614;SDS011;7907;51.368;6.730;2022-09-27T14:12:15;2.22;;;1.00;;
15614;SDS011;7907;51.368;6.730;2022-09-27T14:14:45;0.40;;;0.20;;
15614;SDS011;7907;51.368;6.730;2022-09-27T14:17:16;0.32;;;0.30;;
15614;SDS011;7907;51.368;6.730;2022-09-27T14:19:43;2.53;;;1.75;;
15614;SDS011;7907;51.368;6.730;2022-09-27T14:22:13;7.53;;;2.75;;
15614;SDS011;7907;51.368;6.730;2022-09-27T14:24:43;1.60;;;0.70;;
15614;SDS011;7907;51.368;6.730;2022-09-27T14:27:14;4.50;;;1.17;;
15614;SDS011;7907;51.368;6.730;2022-09-27T14:29:44;5.85;;;1.95;;
15614;SDS011;7907;51.368;6.730;2022-09-27T14:32:14;1.40;;;0.80;;
15614;SDS011;7907;51.368;6.730;2022-09-27T14:34:44;1.80;;;1.13;;
15614;SDS011;7907;51.368;6.730;2022-09-27T14:37:17;0.40;;;0.32;;
15614;SDS011;7907;51.368;6.730;2022-09-27T14:39:52;1.88;;;1.23;;
15614;SDS011;7907;51.368;6.730;2022-09-27T14:42:21;3.63;;;1.65;;
15614;SDS011;7907;51.368;6.730;2022-09-27T14:44:50;2.13;;;1.83;;
15614;SDS011;7907;51.368;6.730;2022-09-27T14:47:20;1.00;;;0.70;;
15614;SDS011;7907;51.368;6.730;2022-09-27T14:49:49;1.10;;;0.60;;
15614;SDS011;7907;51.368;6.730;2022-09-27T14:52:20;1.30;;;0.70;;
15614;SDS011;7907;51.368;6.730;2022-09-27T14:54:56;1.97;;;0.67;;
15614;SDS011;7907;51.368;6.730;2022-09-27T14:57:24;0.43;;;0.28;;
15614;SDS011;7907;51.368;6.730;2022-09-27T14:59:54;0.05;;;0.05;;
15614;SDS011;7907;51.368;6.730;2022-09-27T15:02:25;0.15;;;0.15;;
15614;SDS011;7907;51.368;6.730;2022-09-27T15:04:53;0.85;;;0.47;;
15614;SDS011;7907;51.368;6.730;2022-09-27T15:07:21;1.98;;;0.40;;
15614;SDS011;7907;51.368;6.730;2022-09-27T15:09:49;0.40;;;0.30;;
15614;SDS011;7907;51.368;6.730;2022-09-27T15:12:20;0.10;;;0.00;;
15614;SDS011;7907;51.368;6.730;2022-09-27T15:14:53;0.10;;;0.10;;
15614;SDS011;7907;51.368;6.730;2022-09-27T15:17:25;0.00;;;0.00;;
15614;SDS011;7907;51.368;6.730;2022-09-27T15:19:59;0.80;;;0.40;;
15614;SDS011;7907;51.368;6.730;2022-09-27T15:22:32;0.23;;;0.23;;
15614;SDS011;7907;51.368;6.730;2022-09-27T15:25:14;1.08;;;0.85;;
15614;SDS011;7907;51.368;6.730;2022-09-27T15:27:45;0.70;;;0.57;;
15614;SDS011;7907;51.368;6.730;2022-09-27T15:30:16;1.70;;;0.50;;
15614;SDS011;7907;51.368;6.730;2022-09-27T15:32:54;1.40;;;0.30;;
15614;SDS011;7907;51.368;6.730;2022-09-27T15:35:24;1.40;;;0.40;;
15614;SDS011;7907;51.368;6.730;2022-09-27T15:38:08;0.40;;;0.30;;
15614;SDS011;7907;51.368;6.730;2022-09-27T15:40:55;1.67;;;0.80;;
15614;SDS011;7907;51.368;6.730;2022-09-27T15:43:28;0.95;;;0.38;;
15614;SDS011;7907;51.368;6.730;2022-09-27T15:45:59;0.70;;;0.52;;
15614;SDS011;7907;51.368;6.730;2022-09-27T15:48:30;0.20;;;0.20;;
15614;SDS011;7907;51.368;6.730;2022-09-27T15:51:03;0.10;;;0.10;;
15614;SDS011;7907;51.368;6.730;2022-09-27T15:54:06;1.20;;;0.50;;
15614;SDS011;7907;51.368;6.730;2022-09-27T15:56:33;1.00;;;0.65;;
15614;SDS011;7907;51.368;6.730;2022-09-27T15:59:00;0.75;;;0.50;;
15614;SDS011;7907;51.368;6.730;2022-09-27T16:01:28;2.90;;;0.98;;